Lederach, Pennsylvania
Current Conditions -  °F | °C
As of 10:54 PM on Friday 19 Dec 2014 (Local Time) from KPTW Reporting Station
Overcast Overcast  
Wind Chill: 27°   Ceiling: 3300
Heat Index: 32°   Visibility: 10mi
Dew Point: 21°   Wind: 5mph
Humidity: 64%   Direction: 340°NNW
Pressure: 30.21"   Gusts: NA
Location:  40.26°N, 75.41°W
Report Text: KPTW 200354Z AUTO 34004KT 10SM OVC033 00/M06 A3021 RMK AO2 SLP230 T00001061
Loading
Personal Weather Stations






























Interactive Weather Map New forecast layout! Learn more

10-Day Weather Forecast

Advertisements
Track Severe Weather on mobile